Larkspur — C6BR6 — position and weather

sailwx.info

Track history (hours):
 
Tides and Currents Weather Stations Pressure Air Temp Water Temp Dewpoint Dewpoint Depression Visibility Wind Speed Wind Dir Waves Ship Positions

Larkspur

Operator: Transeuropa Lines

Last reported at 2015-Aug-02 11:28 UTC. Time now 2015-Aug-02 12:25 UTC.
Position N 21°55' E 113°13'.

Length 225 m; draft 10 m.

Type: Tanker. MMSI: 311000344.

Date/timePositionNaut miles runAvg speedWind from/ knotsBaromVisibWave heightAir tempDewpointWater temp
2015-Aug-02 11:28N 21°55' E 113°13'0 0.0
2015-Aug-02 10:28N 21°55' E 113°13'0 0.0
2015-Aug-02 09:10N 21°55' E 113°13'0 0.0
2015-Aug-02 08:27N 21°55' E 113°13'0 0.0
2015-Aug-02 07:27N 21°55' E 113°13'0 0.0
2015-Aug-02 06:33N 21°55' E 113°13'0 0.0
2015-Aug-02 05:22N 21°55' E 113°13'0 0.0
2015-Aug-02 04:27N 21°55' E 113°13'0 0.0
2015-Aug-02 03:27N 21°55' E 113°13'0 0.0
2015-Aug-02 02:21N 21°55' E 113°13'0 0.3
2015-Aug-02 01:28N 21°55' E 113°13'0 0.2
2015-Aug-02 00:33N 21°55' E 113°13'0 0.0
2015-Aug-01 23:33N 21°55' E 113°13'0 0.0
2015-Aug-01 22:33N 21°55' E 113°13'0 0.0
2015-Aug-01 21:33N 21°55' E 113°13'0 0.0
2015-Aug-01 20:33N 21°55' E 113°13'0 0.0
2015-Aug-01 19:28N 21°55' E 113°13'0 0.0
2015-Aug-01 18:15N 21°55' E 113°13'0 0.0
2015-Aug-01 17:34N 21°55' E 113°13'0 0.0
2015-Aug-01 16:33N 21°55' E 113°13'0 0.0
2015-Aug-01 15:28N 21°55' E 113°13'0 0.0
2015-Aug-01 14:33N 21°55' E 113°13'0 0.0
2015-Aug-01 13:22N 21°55' E 113°13'0 0.0
2015-Aug-01 12:27N 21°55' E 113°13'0 0.0
2015-Aug-01 11:34N 21°55' E 113°13'0 0.0
2015-Aug-01 10:21N 21°55' E 113°13'0 0.0
2015-Aug-01 07:33N 21°55' E 113°13'0 0.0
2015-Aug-01 06:27N 21°55' E 113°13'0 0.0
2015-Aug-01 05:33N 21°55' E 113°13'0 0.0
2015-Aug-01 04:27N 21°55' E 113°13'0 0.0
2015-Aug-01 03:33N 21°55' E 113°13'0 0.0
2015-Aug-01 02:33N 21°55' E 113°13'0 0.0
2015-Aug-01 01:21N 21°55' E 113°13'0 0.0
2015-Aug-01 00:33N 21°55' E 113°13'1 0.7
2015-Jul-31 23:33N 21°54' E 113°13'7 6.7
2015-Jul-31 22:33N 21°47' E 113°15'5 3.9
2015-Jul-31 21:11N 21°49' E 113°20'0 0.1
2015-Jul-31 20:23N 21°49' E 113°20'0 0.0
2015-Jul-31 19:29N 21°49' E 113°20'0 0.0
2015-Jul-31 18:29N 21°49' E 113°20'0 0.1
2015-Jul-31 17:29N 21°49' E 113°20'0 0.0
2015-Jul-31 09:29N 21°49' E 113°20'0 0.1
2015-Jul-31 08:33N 21°49' E 113°20'5 5.2
2015-Jul-31 07:33N 21°44' E 113°19'  
2015-Jul-27 22:33N 01°15' E 104°07'1515.3
2015-Jul-27 21:33N 01°11' E 103°52'  
2015-Jul-24 07:22N 02°11' E 101°53'4817.0
2015-Jul-24 04:33N 02°39' E 101°14'1717.2
2015-Jul-24 03:33N 02°48' E 100°59'3416.6
2015-Jul-24 01:32N 03°12' E 100°35'10417.4
2015-Jul-23 19:33N 04°23' E 099°20'2016.8
2015-Jul-23 18:23N 04°37' E 099°06'1416.6
2015-Jul-23 17:33N 04°46' E 098°56'  
Track history (hours):
 
Tides and Currents Weather Stations Pressure Air Temp Water Temp Dewpoint Dewpoint Depression Visibility Wind Speed Wind Dir Waves Ship Positions

Larkspur

Operator: Transeuropa Lines

Last reported at 2015-Aug-02 11:28 UTC. Time now 2015-Aug-02 12:25 UTC.
Position N 21°55' E 113°13'.

Length 225 m; draft 10 m.

Type: Tanker. MMSI: 311000344.

Date/timePositionNaut miles runAvg speedWind from/ knotsBaromVisibWave heightAir tempDewpointWater temp
2015-Aug-02 11:28N 21°55' E 113°13'0 0.0
2015-Aug-02 10:28N 21°55' E 113°13'0 0.0
2015-Aug-02 09:10N 21°55' E 113°13'0 0.0
2015-Aug-02 08:27N 21°55' E 113°13'0 0.0
2015-Aug-02 07:27N 21°55' E 113°13'0 0.0
2015-Aug-02 06:33N 21°55' E 113°13'0 0.0
2015-Aug-02 05:22N 21°55' E 113°13'0 0.0
2015-Aug-02 04:27N 21°55' E 113°13'0 0.0
2015-Aug-02 03:27N 21°55' E 113°13'0 0.0
2015-Aug-02 02:21N 21°55' E 113°13'0 0.3
2015-Aug-02 01:28N 21°55' E 113°13'0 0.2
2015-Aug-02 00:33N 21°55' E 113°13'0 0.0
2015-Aug-01 23:33N 21°55' E 113°13'0 0.0
2015-Aug-01 22:33N 21°55' E 113°13'0 0.0
2015-Aug-01 21:33N 21°55' E 113°13'0 0.0
2015-Aug-01 20:33N 21°55' E 113°13'0 0.0
2015-Aug-01 19:28N 21°55' E 113°13'0 0.0
2015-Aug-01 18:15N 21°55' E 113°13'0 0.0
2015-Aug-01 17:34N 21°55' E 113°13'0 0.0
2015-Aug-01 16:33N 21°55' E 113°13'0 0.0
2015-Aug-01 15:28N 21°55' E 113°13'0 0.0
2015-Aug-01 14:33N 21°55' E 113°13'0 0.0
2015-Aug-01 13:22N 21°55' E 113°13'0 0.0
2015-Aug-01 12:27N 21°55' E 113°13'0 0.0
2015-Aug-01 11:34N 21°55' E 113°13'0 0.0
2015-Aug-01 10:21N 21°55' E 113°13'0 0.0
2015-Aug-01 07:33N 21°55' E 113°13'0 0.0
2015-Aug-01 06:27N 21°55' E 113°13'0 0.0
2015-Aug-01 05:33N 21°55' E 113°13'0 0.0
2015-Aug-01 04:27N 21°55' E 113°13'0 0.0
2015-Aug-01 03:33N 21°55' E 113°13'0 0.0
2015-Aug-01 02:33N 21°55' E 113°13'0 0.0
2015-Aug-01 01:21N 21°55' E 113°13'0 0.0
2015-Aug-01 00:33N 21°55' E 113°13'1 0.7
2015-Jul-31 23:33N 21°54' E 113°13'7 6.7
2015-Jul-31 22:33N 21°47' E 113°15'5 3.9
2015-Jul-31 21:11N 21°49' E 113°20'0 0.1
2015-Jul-31 20:23N 21°49' E 113°20'0 0.0
2015-Jul-31 19:29N 21°49' E 113°20'0 0.0
2015-Jul-31 18:29N 21°49' E 113°20'0 0.1
2015-Jul-31 17:29N 21°49' E 113°20'0 0.0
2015-Jul-31 09:29N 21°49' E 113°20'0 0.1
2015-Jul-31 08:33N 21°49' E 113°20'5 5.2
2015-Jul-31 07:33N 21°44' E 113°19'  
2015-Jul-27 22:33N 01°15' E 104°07'1515.3
2015-Jul-27 21:33N 01°11' E 103°52'  
2015-Jul-24 07:22N 02°11' E 101°53'4817.0
2015-Jul-24 04:33N 02°39' E 101°14'1717.2
2015-Jul-24 03:33N 02°48' E 100°59'3416.6
2015-Jul-24 01:32N 03°12' E 100°35'10417.4
2015-Jul-23 19:33N 04°23' E 099°20'2016.8
2015-Jul-23 18:23N 04°37' E 099°06'1416.6
2015-Jul-23 17:33N 04°46' E 098°56'  

Dump ship's entire track history